Time;durP1;ratioP1;P1;durP2;ratioP2;P2;SDS_P1;SDS_P2;PMS_P1;PMS_P2;Temp;Humidity;BMP_temperature;BMP_pressure;BME280_temperature;BME280_humidity;BME280_pressure;Samples;Min_cycle;Max_cycle;Signal;HPM_P1;HPM_P2
2022/05/29 00:00:05;;;;;;;9.93;1.97;;;;;;;10.76;68.16;100443.78;1707938;83;20960;-79
2022/05/29 00:02:31;;;;;;;7.08;1.67;;;;;;;10.75;68.22;100442.08;1695621;82;20992;-79
2022/05/29 00:04:57;;;;;;;10.33;2.17;;;;;;;10.75;68.23;100430.88;1670434;84;21071;-79
2022/05/29 00:07:23;;;;;;;6.07;1.97;;;;;;;10.75;68.24;100436.05;1705066;83;21278;-78
2022/05/29 00:09:52;;;;;;;7.17;2.15;;;;;;;10.72;68.27;100432.23;1682432;84;21000;-78
2022/05/29 00:12:21;;;;;;;4.23;1.60;;;;;;;10.71;68.29;100430.53;1670527;85;20921;-79
2022/05/29 00:14:48;;;;;;;4.83;1.40;;;;;;;10.70;68.33;100428.38;1680029;83;21095;-79
2022/05/29 00:17:17;;;;;;;7.17;1.87;;;;;;;10.71;68.34;100427.50;1680412;84;21580;-78
2022/05/29 00:19:44;;;;;;;7.42;2.15;;;;;;;10.68;68.31;100432.73;1674676;83;20944;-78
2022/05/29 00:22:16;;;;;;;4.20;1.57;;;;;;;10.66;68.35;100429.33;1698249;84;20980;-78
2022/05/29 00:24:48;;;;;;;6.75;1.65;;;;;;;10.65;68.41;100427.63;1670832;84;21032;-78
2022/05/29 00:27:16;;;;;;;8.05;1.87;;;;;;;10.63;68.41;100428.09;1652792;83;21357;-78
2022/05/29 00:29:43;;;;;;;6.22;1.80;;;;;;;10.64;68.46;100427.65;1641710;86;21062;-78
2022/05/29 00:32:10;;;;;;;5.67;1.52;;;;;;;10.61;68.46;100424.24;1615860;87;21068;-78
2022/05/29 00:34:37;;;;;;;7.50;1.72;;;;;;;10.61;68.45;100422.09;1675971;83;21000;-78
2022/05/29 00:37:05;;;;;;;;;;;;;;;10.59;68.49;100427.30;1694017;83;21120;-78
2022/05/29 00:39:31;;;;;;;8.78;1.95;;;;;;;10.59;68.81;100423.86;1684507;84;20498;-78
2022/05/29 00:41:58;;;;;;;8.73;1.87;;;;;;;10.58;68.55;100420.42;1671732;84;21087;-78
2022/05/29 00:44:29;;;;;;;8.73;2.00;;;;;;;10.59;68.57;100418.25;1676253;84;21339;-78
2022/05/29 00:47:11;;;;;;;4.05;1.52;;;;;;;10.59;68.57;100415.66;1687123;84;21366;-78
2022/05/29 00:49:40;;;;;;;7.08;1.95;;;;;;;10.58;68.58;100415.25;1680571;84;21099;-78
2022/05/29 00:52:21;;;;;;;6.42;1.85;;;;;;;10.59;68.57;100417.39;1686278;84;20995;-78
2022/05/29 00:54:58;;;;;;;5.15;1.40;;;;;;;10.59;68.62;100417.39;1697944;83;21041;-78
2022/05/29 00:57:35;;;;;;;7.50;2.17;;;;;;;10.61;68.65;100422.09;1698379;84;21100;-78
2022/05/29 01:00:07;;;;;;;;;;;;;;;10.61;68.67;100420.36;1696007;83;21060;-78
2022/05/29 01:02:34;;;;;;;9.73;1.98;;;;;;;10.59;68.95;100421.27;1680385;81;387047;-78
2022/05/29 01:05:04;;;;;;;5.15;1.50;;;;;;;10.57;68.69;100419.16;1698662;84;21127;-79
2022/05/29 01:07:32;;;;;;;7.53;1.42;;;;;;;10.56;68.72;100418.30;1697993;84;21492;-78
2022/05/29 01:10:01;;;;;;;4.22;1.37;;;;;;;10.56;68.77;100422.19;1691507;83;21050;-78
2022/05/29 01:12:44;;;;;;;3.92;1.47;;;;;;;10.56;68.70;100422.63;1678256;84;21151;-79
2022/05/29 01:15:24;;;;;;;8.37;1.60;;;;;;;10.56;68.79;100418.30;1599082;85;21695;-80
2022/05/29 01:18:17;;;;;;;9.30;1.70;;;;;;;10.58;68.79;100423.45;1676957;83;21072;-79
2022/05/29 01:21:24;;;;;;;8.38;1.82;;;;;;;10.58;68.79;100419.56;1695294;83;21492;-79
2022/05/29 01:24:12;;;;;;;8.78;1.70;;;;;;;10.58;68.76;100418.28;1682467;84;21071;-79
2022/05/29 01:27:26;;;;;;;5.33;1.70;;;;;;;10.57;68.81;100416.57;1682914;83;20881;-79
2022/05/29 01:30:09;;;;;;;10.72;1.90;;;;;;;10.57;68.82;100417.86;1698419;84;20949;-79
2022/05/29 01:32:59;;;;;;;4.40;1.17;;;;;;;10.58;68.87;100418.28;1699900;83;20909;-79
2022/05/29 01:35:36;;;;;;;3.55;1.25;;;;;;;10.55;68.85;100419.19;1685451;84;21284;-79
2022/05/29 01:38:14;;;;;;;6.10;1.60;;;;;;;10.56;68.89;100417.45;1675442;84;20886;-79
2022/05/29 01:40:51;;;;;;;8.03;1.85;;;;;;;10.54;68.88;100416.19;1698508;84;20910;-79
2022/05/29 01:43:33;;;;;;;5.40;1.67;;;;;;;10.54;68.95;100413.60;1690253;83;20885;-79
2022/05/29 01:46:13;;;;;;;9.63;2.55;;;;;;;10.54;68.94;100412.31;1679765;84;20929;-78
2022/05/29 01:49:05;;;;;;;2.80;1.40;;;;;;;10.51;68.92;100408.49;1689342;84;21088;-79
2022/05/29 01:51:43;;;;;;;7.03;1.60;;;;;;;10.48;68.97;100408.55;1697338;83;21313;-78
2022/05/29 01:54:44;;;;;;;7.10;1.80;;;;;;;10.46;68.98;100407.72;1684975;84;21505;-79
2022/05/29 01:57:39;;;;;;;5.33;1.32;;;;;;;10.45;69.04;100408.61;1674139;83;21616;-78
2022/05/29 02:00:17;;;;;;;9.63;1.77;;;;;;;10.41;69.02;100401.78;1584140;89;21038;-78
2022/05/29 02:02:49;;;;;;;11.38;1.98;;;;;;;10.39;69.07;100403.58;1554054;91;21104;-78
2022/05/29 02:05:22;;;;;;;6.10;1.77;;;;;;;10.38;69.07;100403.61;1529877;91;21194;-79
2022/05/29 02:07:54;;;;;;;6.80;1.70;;;;;;;10.37;69.10;100408.37;1529646;92;21214;-79
2022/05/29 02:10:50;;;;;;;7.28;1.82;;;;;;;10.36;69.12;100407.95;1515708;93;21686;-78
2022/05/29 02:13:34;;;;;;;6.15;1.42;;;;;;;10.34;69.12;100407.13;1493752;92;21680;-78
2022/05/29 02:16:16;;;;;;;6.22;1.47;;;;;;;10.33;69.15;100410.59;1524420;92;21165;-78
2022/05/29 02:18:50;;;;;;;10.63;2.17;;;;;;;10.33;69.17;100404.13;1510741;94;21241;-79
2022/05/29 02:21:36;;;;;;;8.40;1.98;;;;;;;10.32;69.18;100409.74;1529195;91;21137;-79
2022/05/29 02:24:07;;;;;;;4.35;1.25;;;;;;;10.32;69.22;100417.49;1533566;92;21121;-78
2022/05/29 02:26:39;;;;;;;4.87;1.55;;;;;;;10.31;69.23;100413.64;1531752;92;21137;-78
2022/05/29 02:29:09;;;;;;;6.17;1.80;;;;;;;10.30;69.21;100414.09;1531583;90;21232;-80
2022/05/29 02:31:57;;;;;;;6.05;1.60;;;;;;;10.29;69.21;100414.97;1582735;87;21131;-79
2022/05/29 02:34:53;;;;;;;4.03;1.40;;;;;;;10.28;69.25;100414.11;1643741;87;21530;-79
2022/05/29 02:37:40;;;;;;;4.20;1.30;;;;;;;10.28;69.25;100411.53;1604875;85;21136;-79
2022/05/29 02:40:14;;;;;;;8.18;1.50;;;;;;;10.26;69.26;100412.44;1648077;86;21537;-79
2022/05/29 02:43:12;;;;;;;3.47;1.30;;;;;;;10.26;69.25;100412.44;1635240;86;21009;-79
2022/05/29 02:46:06;;;;;;;4.85;1.30;;;;;;;10.24;69.23;100414.19;1639048;85;21100;-79
2022/05/29 02:49:06;;;;;;;6.97;1.62;;;;;;;10.18;69.27;100411.69;1649845;85;21121;-79
2022/05/29 02:51:44;;;;;;;5.10;1.37;;;;;;;10.12;69.29;100411.35;1691813;83;21075;-79
2022/05/29 02:54:26;;;;;;;5.37;1.65;;;;;;;10.10;69.33;100410.96;1629521;87;21103;-79
2022/05/29 02:56:58;;;;;;;8.38;1.87;;;;;;;10.06;69.34;100414.48;1631317;86;21091;-79
2022/05/29 02:59:31;;;;;;;6.78;1.75;;;;;;;10.02;69.33;100411.53;1619066;86;21080;-78
2022/05/29 03:02:11;;;;;;;5.47;1.32;;;;;;;9.99;69.36;100409.85;1608505;89;21063;-78
2022/05/29 03:04:55;;;;;;;6.53;1.30;;;;;;;9.98;69.35;100412.02;1603053;89;21143;-79
2022/05/29 03:07:44;;;;;;;4.42;1.32;;;;;;;9.95;69.35;100410.78;1607094;89;21637;-79
2022/05/29 03:10:18;;;;;;;8.40;1.55;;;;;;;9.94;69.38;100411.66;1607936;87;21107;-79
2022/05/29 03:13:13;;;;;;;3.08;1.32;;;;;;;9.92;69.43;100412.98;1597428;89;21098;-79
2022/05/29 03:15:53;;;;;;;8.30;1.80;;;;;;;9.92;69.45;100416.00;1589749;87;21247;-79
2022/05/29 03:18:40;;;;;;;5.55;1.47;;;;;;;9.92;69.43;100417.29;1607362;89;21082;-79
2022/05/29 03:21:55;;;;;;;5.37;2.00;;;;;;;9.92;69.48;100421.16;1595584;89;21082;-78
2022/05/29 03:24:53;;;;;;;9.25;1.50;;;;;;;9.95;69.52;100423.25;1615722;88;21293;-78
2022/05/29 03:27:30;;;;;;;6.22;1.50;;;;;;;9.98;69.51;100423.64;1647525;86;20964;-79
2022/05/29 03:30:37;;;;;;;4.65;1.55;;;;;;;9.96;69.49;100424.96;1639513;84;21398;-79
2022/05/29 03:33:06;;;;;;;;;;;;;;;10.01;69.54;100430.49;1671872;84;20873;-79
2022/05/29 03:35:38;;;;;;;4.37;1.42;;;;;;;10.02;69.68;100427.88;1704158;84;20129;-79
2022/05/29 03:38:05;;;;;;;8.33;1.90;;;;;;;10.02;69.47;100430.47;1702516;83;20909;-78
2022/05/29 03:40:33;;;;;;;5.75;1.92;;;;;;;10.03;69.54;100433.91;1699597;84;26569;-79
2022/05/29 03:43:01;;;;;;;4.50;1.42;;;;;;;10.05;69.57;100427.83;1698447;84;21559;-79
2022/05/29 03:45:27;;;;;;;4.65;1.87;;;;;;;10.07;69.58;100429.10;1706749;83;21538;-79
2022/05/29 03:47:53;;;;;;;9.60;1.77;;;;;;;10.09;69.58;100440.27;1680878;84;21075;-79
2022/05/29 03:50:22;;;;;;;6.83;1.72;;;;;;;10.11;69.63;100428.17;1670444;84;21683;-79
2022/05/29 03:52:49;;;;;;;4.15;1.80;;;;;;;10.12;69.61;100435.89;1686608;83;21556;-79
2022/05/29 03:55:17;;;;;;;;;;;;;;;10.15;69.61;100437.14;1673092;84;21007;-79
2022/05/29 03:57:43;;;;;;;7.40;1.60;;;;;;;10.18;69.82;100436.23;1672160;85;20424;-78
2022/05/29 04:00:12;;;;;;;6.27;1.97;;;;;;;10.22;69.64;100440.50;1703884;83;21630;-79
2022/05/29 04:02:40;;;;;;;7.50;1.92;;;;;;;10.25;69.61;100440.45;1673393;83;20988;-79
2022/05/29 04:05:10;;;;;;;9.18;1.98;;;;;;;10.26;69.62;100440.42;1698919;84;21512;-79
2022/05/29 04:13:06;;;;;;;7.00;1.45;;;;;;;10.45;69.70;100442.65;1670117;84;21019;-79
2022/05/29 04:15:32;;;;;;;;;;;;;;;10.53;69.70;100449.83;1678161;83;22204;-79
2022/05/29 04:17:58;;;;;;;4.13;1.60;;;;;;;10.61;69.86;100457.00;1670820;84;20195;-79
2022/05/29 04:20:24;;;;;;;7.20;1.80;;;;;;;10.71;69.77;100452.52;1671638;83;21056;-79
2022/05/29 04:22:50;;;;;;;6.97;1.60;;;;;;;10.77;69.72;100454.54;1692316;83;21718;-79
2022/05/29 04:25:16;;;;;;;9.77;1.60;;;;;;;10.84;69.72;100460.45;1698280;84;20976;-79
2022/05/29 04:27:43;;;;;;;6.67;1.60;;;;;;;10.94;69.77;100458.91;1695328;83;21048;-79
2022/05/29 04:30:12;;;;;;;8.25;2.22;;;;;;;11.05;69.78;100462.58;1674431;83;21559;-79
2022/05/29 04:35:24;;;;;;;9.23;1.97;;;;;;;11.22;69.71;100463.53;1696496;84;21535;-80
2022/05/29 04:37:50;;;;;;;4.83;1.67;;;;;;;11.30;69.75;100456.90;1698178;83;20929;-80
2022/05/29 04:40:16;;;;;;;8.73;1.80;;;;;;;11.40;69.74;100459.26;1698554;83;22358;-80
2022/05/29 04:42:50;;;;;;;4.72;1.50;;;;;;;11.46;69.77;100460.39;1677838;84;21583;-80
2022/05/29 04:45:15;;;;;;;;;;;;;;;11.56;69.74;100461.03;1679363;84;21528;-80
2022/05/29 04:47:41;;;;;;;8.07;1.67;;;;;;;11.64;69.65;100459.12;1700990;84;20791;-80
2022/05/29 04:50:09;;;;;;;5.28;1.47;;;;;;;11.76;69.73;100457.99;1688654;83;21111;-80
2022/05/29 04:52:36;;;;;;;4.60;1.70;;;;;;;11.81;69.66;100458.77;1671878;84;20882;-80
2022/05/29 04:55:03;;;;;;;5.37;2.00;;;;;;;11.92;69.73;100452.89;1671902;85;20959;-80
2022/05/29 04:57:30;;;;;;;4.72;1.62;;;;;;;12.02;69.67;100459.53;1676150;83;20921;-80
2022/05/29 04:59:57;;;;;;;3.27;1.52;;;;;;;12.10;69.68;100452.86;1699854;84;20869;-78
2022/05/29 05:02:26;;;;;;;7.28;1.67;;;;;;;12.20;69.67;100448.70;1699856;84;21410;-78
2022/05/29 05:04:52;;;;;;;6.08;1.50;;;;;;;12.28;69.62;100447.22;1684441;83;20968;-79
2022/05/29 05:07:18;;;;;;;6.92;1.90;;;;;;;12.45;69.73;100448.93;1671774;84;20976;-79
2022/05/29 05:09:44;;;;;;;4.58;1.45;;;;;;;12.63;69.64;100446.71;1675310;84;22072;-80
2022/05/29 05:12:11;;;;;;;2.67;1.30;;;;;;;12.70;69.54;100449.09;1699736;83;21513;-80
2022/05/29 05:14:40;;;;;;;6.75;1.95;;;;;;;12.71;69.47;100451.25;1699937;83;20945;-79
2022/05/29 05:17:06;;;;;;;5.83;1.87;;;;;;;12.90;69.82;100456.33;1702071;84;21473;-79
2022/05/29 05:19:32;;;;;;;5.10;1.57;;;;;;;13.45;69.96;100454.73;1691105;83;21566;-79
2022/05/29 05:22:02;;;;;;;5.47;1.45;;;;;;;14.08;69.85;100455.70;1697927;82;21563;-79
2022/05/29 05:24:28;;;;;;;4.10;1.62;;;;;;;14.71;69.86;100460.08;1695811;84;20917;-79
2022/05/29 05:26:58;;;;;;;5.12;1.47;;;;;;;15.22;69.74;100456.00;1671896;84;21354;-79
2022/05/29 05:29:25;;;;;;;4.83;1.52;;;;;;;15.73;69.78;100447.09;1680121;83;20893;-79
2022/05/29 05:31:51;;;;;;;;;;;;;;;16.33;69.59;100454.59;1679006;84;21564;-79
2022/05/29 05:34:17;;;;;;;4.43;1.60;;;;;;;16.86;68.61;100449.67;1697925;84;20970;-80
2022/05/29 05:36:43;;;;;;;4.80;1.45;;;;;;;17.37;69.22;100453.42;1702672;83;21149;-80
2022/05/29 05:39:10;;;;;;;3.30;1.60;;;;;;;17.94;69.43;100453.73;1701390;84;20980;-79
2022/05/29 05:41:37;;;;;;;3.95;1.57;;;;;;;18.55;69.19;100450.63;1690911;83;21035;-78
2022/05/29 05:44:04;;;;;;;3.20;1.47;;;;;;;19.08;69.17;100454.37;1676769;84;21631;-78
2022/05/29 05:46:30;;;;;;;;;;;;;;;19.53;69.01;100452.80;1701903;83;21565;-77
2022/05/29 05:48:57;;;;;;;2.97;1.40;;;;;;;20.05;68.30;100451.98;1698249;83;20658;-77
2022/05/29 05:51:23;;;;;;;3.77;1.40;;;;;;;20.54;69.01;100448.27;1679452;83;21317;-77
2022/05/29 05:53:50;;;;;;;5.40;1.30;;;;;;;20.94;68.46;100450.61;1688560;83;28685;-77
2022/05/29 05:56:18;;;;;;;5.12;1.50;;;;;;;21.26;68.46;100452.59;1693472;83;21566;-77
2022/05/29 05:58:45;;;;;;;1.92;1.10;;;;;;;21.60;68.04;100457.84;1694187;82;20917;-76
2022/05/29 06:01:15;;;;;;;5.17;1.33;;;;;;;21.87;67.73;100454.72;1701709;82;20917;-76
2022/05/29 06:03:41;;;;;;;5.78;1.50;;;;;;;21.95;67.14;100456.38;1704124;84;21530;-76
2022/05/29 06:06:08;;;;;;;3.13;1.27;;;;;;;21.42;66.52;100462.48;1705315;83;20956;-77
2022/05/29 06:08:35;;;;;;;5.72;1.92;;;;;;;20.80;66.39;100461.50;1705396;83;22356;-77
2022/05/29 06:11:01;;;;;;;2.25;0.95;;;;;;;20.25;66.11;100460.02;1698926;84;20904;-77
2022/05/29 06:13:27;;;;;;;5.53;1.60;;;;;;;20.18;66.43;100468.34;1701389;83;20929;-77
2022/05/29 06:16:01;;;;;;;6.25;1.67;;;;;;;20.61;66.34;100467.98;1696161;82;21118;-79
2022/05/29 06:18:27;;;;;;;4.85;1.32;;;;;;;20.83;65.69;100465.72;1688575;83;20964;-78
2022/05/29 06:21:00;;;;;;;2.52;1.02;;;;;;;20.62;65.38;100463.10;1689254;83;21019;-79
2022/05/29 06:23:28;;;;;;;5.42;1.47;;;;;;;20.62;64.94;100461.32;1705237;84;20862;-78
2022/05/29 06:25:54;;;;;;;5.22;1.62;;;;;;;20.52;64.71;100461.95;1697102;83;20905;-78
2022/05/29 06:28:20;;;;;;;5.53;1.70;;;;;;;20.61;64.44;100466.20;1677829;84;20949;-78
2022/05/29 06:30:46;;;;;;;3.47;1.50;;;;;;;20.83;64.11;100460.46;1694082;83;20881;-78
2022/05/29 06:33:13;;;;;;;3.17;1.13;;;;;;;20.77;63.54;100460.87;1696586;82;20889;-78
2022/05/29 06:35:39;;;;;;;;;;;;;;;20.62;63.20;100460.47;1691271;83;20857;-78
2022/05/29 06:38:05;;;;;;;5.30;1.50;;;;;;;20.18;61.67;100464.41;1693319;83;20205;-78
2022/05/29 06:40:31;;;;;;;5.00;1.20;;;;;;;19.73;62.90;100471.37;1700693;83;20925;-78
2022/05/29 06:42:57;;;;;;;4.23;1.27;;;;;;;19.86;62.87;100471.02;1705335;83;21299;-77
2022/05/29 06:45:23;;;;;;;4.87;1.80;;;;;;;19.95;62.46;100472.28;1695606;83;20916;-78
2022/05/29 06:47:49;;;;;;;2.87;1.30;;;;;;;19.80;62.05;100472.22;1704051;83;20886;-78
2022/05/29 06:50:15;;;;;;;4.63;1.40;;;;;;;19.78;61.81;100468.84;1697779;83;21983;-78
2022/05/29 06:52:41;;;;;;;5.17;1.60;;;;;;;19.62;61.61;100477.21;1701034;82;20905;-78
2022/05/29 06:55:09;;;;;;;4.00;1.55;;;;;;;19.65;61.19;100477.04;1698699;83;20893;-78
2022/05/29 06:57:43;;;;;;;4.15;1.52;;;;;;;19.46;60.93;100484.20;1699829;84;21421;-77
2022/05/29 07:08:41;;;;;;;4.42;1.47;;;;;;;19.05;60.22;100472.88;1687722;83;20904;-78
2022/05/29 07:11:15;;;;;;;4.15;1.50;;;;;;;18.95;60.02;100472.98;1689964;84;20908;-78
2022/05/29 07:13:42;;;;;;;4.87;1.70;;;;;;;18.84;59.61;100477.48;1682729;84;20881;-78
2022/05/29 07:16:08;;;;;;;4.22;1.42;;;;;;;18.65;59.51;100475.46;1697808;83;21260;-78
2022/05/29 07:18:34;;;;;;;4.15;1.47;;;;;;;18.73;59.11;100476.34;1696957;83;20928;-78
2022/05/29 07:21:02;;;;;;;4.07;1.67;;;;;;;18.42;59.17;100479.67;1676746;83;21500;-78
2022/05/29 07:23:29;;;;;;;3.40;1.67;;;;;;;18.28;59.21;100479.05;1680091;83;21374;-78
2022/05/29 07:26:04;;;;;;;4.03;1.42;;;;;;;18.05;58.83;100481.53;1675892;85;20908;-78
2022/05/29 07:28:30;;;;;;;;;;;;;;;18.02;58.72;100479.06;1651871;85;20960;-78
2022/05/29 07:30:56;;;;;;;3.43;1.40;;;;;;;18.10;58.54;100476.92;1678105;84;20507;-78
2022/05/29 07:33:23;;;;;;;4.00;1.27;;;;;;;18.12;58.59;100481.62;1687163;83;20968;-78
2022/05/29 07:35:49;;;;;;;;;;;;;;;18.03;58.40;100469.44;1679064;85;21421;-78
2022/05/29 07:38:15;;;;;;;4.40;1.57;;;;;;;18.05;58.08;100478.06;1680175;84;20134;-78
2022/05/29 07:40:42;;;;;;;3.95;1.70;;;;;;;18.24;58.38;100478.82;1695220;83;20972;-78
2022/05/29 07:43:20;;;;;;;2.30;1.17;;;;;;;18.57;58.30;100475.44;1675630;85;21062;-78
2022/05/29 07:45:53;;;;;;;2.83;1.12;;;;;;;18.61;57.90;100445.58;1681272;84;21100;-78
2022/05/29 07:48:23;;;;;;;3.30;1.82;;;;;;;18.79;57.69;100477.34;1703366;83;21088;-78
2022/05/29 07:50:51;;;;;;;6.55;1.37;;;;;;;18.59;57.50;100474.89;1703733;84;21040;-78
2022/05/29 07:53:17;;;;;;;;;;;;;;;18.35;57.18;100477.83;1706356;83;21033;-78
2022/05/29 07:55:43;;;;;;;;;;;;;;;18.24;57.20;100479.28;1706038;83;20189;-77
2022/05/29 07:58:11;;;;;;;1.45;0.95;;;;;;;18.36;57.08;100470.36;1689592;83;20227;-77
2022/05/29 08:00:38;;;;;;;4.50;1.50;;;;;;;18.52;57.37;100475.20;1678195;83;20956;-77
2022/05/29 08:03:22;;;;;;;2.67;1.20;;;;;;;18.58;57.20;100475.36;1668604;84;20948;-77
2022/05/29 08:05:48;;;;;;;6.65;1.35;;;;;;;18.53;56.82;100479.52;1701748;83;20953;-77
2022/05/29 08:08:14;;;;;;;2.05;1.15;;;;;;;18.51;57.05;100476.12;1678383;84;20933;-77
2022/05/29 08:10:43;;;;;;;3.65;1.02;;;;;;;18.60;56.73;100473.53;1693560;83;20952;-77
2022/05/29 08:13:09;;;;;;;3.02;1.15;;;;;;;18.75;56.77;100471.88;1685169;84;21319;-77
2022/05/29 08:15:36;;;;;;;3.80;1.40;;;;;;;18.98;56.70;100484.62;1702059;84;20904;-77
2022/05/29 08:18:04;;;;;;;2.83;1.47;;;;;;;19.25;56.52;100480.12;1704332;84;20906;-77
2022/05/29 08:20:31;;;;;;;3.02;1.22;;;;;;;19.51;56.45;100482.20;1690011;83;20960;-77
2022/05/29 08:22:57;;;;;;;3.35;1.30;;;;;;;19.78;56.30;100480.64;1700545;83;20909;-77
2022/05/29 08:30:54;;;;;;;2.90;1.10;;;;;;;20.31;55.93;100462.72;1703359;84;20938;-78
2022/05/29 08:33:24;;;;;;;1.92;1.20;;;;;;;20.53;55.73;100464.97;1696505;83;20932;-77
2022/05/29 08:36:08;;;;;;;2.15;1.02;;;;;;;20.68;55.57;100473.25;1705100;84;20960;-77
2022/05/29 08:38:41;;;;;;;2.70;1.35;;;;;;;20.78;55.39;100471.28;1695882;84;20917;-78
2022/05/29 08:41:19;;;;;;;3.42;1.12;;;;;;;20.90;55.31;100474.92;1679832;84;20889;-78
2022/05/29 08:44:03;;;;;;;5.97;1.22;;;;;;;21.00;54.89;100476.05;1701441;83;20917;-78
2022/05/29 08:46:49;;;;;;;4.50;1.40;;;;;;;20.78;54.83;100483.58;1689555;84;21019;-78
2022/05/29 08:49:21;;;;;;;3.12;0.90;;;;;;;20.53;54.63;100485.98;1695695;83;21146;-78
2022/05/29 08:52:13;;;;;;;1.85;1.10;;;;;;;20.34;54.65;100487.49;1675358;84;21070;-78
2022/05/29 08:55:08;;;;;;;1.77;1.10;;;;;;;20.28;54.57;100486.06;1691799;84;21132;-78
2022/05/29 08:58:00;;;;;;;2.43;0.77;;;;;;;20.21;54.08;100490.02;1673301;85;21083;-78
2022/05/29 09:00:50;;;;;;;3.62;1.20;;;;;;;19.93;54.02;100485.96;1687904;84;21048;-77
2022/05/29 09:03:51;;;;;;;1.92;0.80;;;;;;;19.63;53.70;100495.11;1699016;83;21060;-78
2022/05/29 09:06:47;;;;;;;4.78;1.07;;;;;;;19.30;53.71;100491.20;1691167;84;21464;-78
2022/05/29 09:09:24;;;;;;;2.10;0.90;;;;;;;19.06;53.53;100494.23;1675882;84;21503;-78
2022/05/29 09:11:59;;;;;;;4.65;1.50;;;;;;;18.85;53.48;100492.73;1674652;84;21095;-78
2022/05/29 09:14:40;;;;;;;2.77;0.95;;;;;;;18.77;53.35;100498.84;1688315;84;21048;-78
2022/05/29 09:17:23;;;;;;;3.22;0.90;;;;;;;18.51;52.96;100492.30;1692322;84;21059;-78
2022/05/29 09:19:54;;;;;;;2.50;0.95;;;;;;;18.31;52.93;100498.53;1693844;83;21060;-78
2022/05/29 09:22:37;;;;;;;2.25;0.80;;;;;;;18.14;52.75;100495.93;1703196;82;21024;-78
2022/05/29 09:25:32;;;;;;;2.83;1.02;;;;;;;17.94;52.68;100495.59;1677200;84;21115;-78
2022/05/29 09:28:24;;;;;;;1.80;0.90;;;;;;;17.78;52.64;100509.02;1683118;83;21094;-78
2022/05/29 09:31:05;;;;;;;2.25;0.85;;;;;;;17.65;52.57;100497.43;1692942;84;20995;-78
2022/05/29 09:33:31;;;;;;;2.67;0.75;;;;;;;17.58;52.52;100504.71;1675119;84;21350;-79
2022/05/29 09:36:36;;;;;;;2.87;1.10;;;;;;;17.50;52.43;100505.06;1675174;85;21122;-79
2022/05/29 09:39:29;;;;;;;2.08;1.05;;;;;;;17.50;52.38;100506.83;1673299;85;21116;-79
2022/05/29 09:42:06;;;;;;;2.67;1.00;;;;;;;17.40;52.16;100507.71;1674695;84;21094;-79
2022/05/29 09:44:36;;;;;;;5.40;0.70;;;;;;;17.35;52.14;100508.38;1686584;83;21444;-79
2022/05/29 09:50:08;;;;;;;2.02;0.80;;;;;;;17.27;52.12;100508.34;1680755;83;21091;-79
2022/05/29 09:52:40;;;;;;;2.08;0.90;;;;;;;17.26;52.00;100507.95;1692695;84;20917;-78
2022/05/29 09:55:29;;;;;;;1.60;0.70;;;;;;;17.23;51.90;100513.31;1676993;84;21485;-78
2022/05/29 09:58:02;;;;;;;2.80;0.90;;;;;;;17.18;51.81;100506.53;1684992;83;21082;-77
2022/05/29 10:00:39;;;;;;;3.00;1.07;;;;;;;17.13;51.89;100503.30;1704939;84;20949;-77
2022/05/29 10:03:14;;;;;;;3.67;0.82;;;;;;;17.16;51.82;100508.82;1698895;84;20905;-77
2022/05/29 10:05:42;;;;;;;1.60;0.80;;;;;;;17.18;51.83;100508.30;1681148;83;20952;-77
2022/05/29 10:08:31;;;;;;;3.87;0.70;;;;;;;17.23;51.81;100503.70;1705224;84;20913;-78
2022/05/29 10:11:22;;;;;;;3.92;0.90;;;;;;;17.28;51.81;100504.81;1687698;84;20948;-78
2022/05/29 10:13:51;;;;;;;2.95;0.88;;;;;;;17.33;51.73;100498.45;1676823;84;21439;-78
2022/05/29 10:16:37;;;;;;;2.30;0.95;;;;;;;17.29;51.58;100501.28;1685911;83;20916;-78
2022/05/29 10:19:08;;;;;;;3.05;1.10;;;;;;;17.26;51.67;100504.87;1699538;84;20941;-78
2022/05/29 10:21:52;;;;;;;2.17;0.80;;;;;;;17.27;51.59;100505.72;1705226;83;20932;-78
2022/05/29 10:24:37;;;;;;;1.40;0.90;;;;;;;17.18;51.55;100501.30;1679432;84;20987;-78
2022/05/29 10:27:36;;;;;;;3.05;1.00;;;;;;;17.20;51.62;100503.84;1676899;84;20925;-78
2022/05/29 10:30:11;;;;;;;2.35;0.98;;;;;;;17.25;51.56;100506.25;1691631;83;21369;-78
2022/05/29 10:32:42;;;;;;;2.05;1.12;;;;;;;17.27;51.63;100505.27;1691447;82;21416;-78
2022/05/29 10:35:28;;;;;;;3.42;1.10;;;;;;;17.39;51.65;100510.40;1687753;83;21555;-78
2022/05/29 10:37:55;;;;;;;2.50;1.03;;;;;;;17.41;51.62;100506.80;1696242;83;21023;-78
2022/05/29 10:40:29;;;;;;;2.40;0.82;;;;;;;17.49;51.58;100506.45;1696437;83;21635;-78
2022/05/29 10:43:03;;;;;;;4.47;1.10;;;;;;;17.54;51.54;100505.77;1667673;84;21504;-78
2022/05/29 10:45:43;;;;;;;2.00;0.90;;;;;;;17.65;51.63;100503.54;1689664;83;20920;-78
2022/05/29 10:48:30;;;;;;;3.75;1.07;;;;;;;17.73;51.52;100510.99;1703457;83;20913;-78
2022/05/29 10:51:19;;;;;;;2.55;1.07;;;;;;;17.77;51.61;100507.31;1680535;84;20941;-78
2022/05/29 10:54:08;;;;;;;3.50;1.20;;;;;;;17.91;51.59;100506.20;1700307;83;20940;-78
2022/05/29 10:56:56;;;;;;;2.05;1.00;;;;;;;18.00;51.56;100500.98;1702965;83;20912;-78
2022/05/29 11:00:20;;;;;;;1.67;1.10;;;;;;;17.95;51.43;100506.44;1700892;83;20932;-78
2022/05/29 11:03:18;;;;;;;4.20;1.10;;;;;;;17.85;51.34;100506.50;1675419;84;21043;-78
2022/05/29 11:05:56;;;;;;;4.25;1.10;;;;;;;17.78;51.42;100499.86;1693395;84;21567;-78
2022/05/29 11:08:45;;;;;;;1.82;0.85;;;;;;;17.73;51.51;100500.53;1700177;83;20956;-79
2022/05/29 11:11:57;;;;;;;2.08;0.90;;;;;;;17.71;51.41;100501.06;1689285;84;20927;-79
2022/05/29 11:14:49;;;;;;;3.58;1.07;;;;;;;17.63;51.35;100501.88;1699285;83;21433;-79
2022/05/29 11:17:56;;;;;;;1.40;0.80;;;;;;;17.50;51.30;100500.30;1704299;84;20941;-79
2022/05/29 11:20:46;;;;;;;4.85;0.98;;;;;;;17.34;51.33;100501.45;1699465;83;21414;-79
2022/05/29 11:23:53;;;;;;;2.10;0.90;;;;;;;17.20;51.34;100502.08;1705038;84;20941;-78
2022/05/29 11:26:44;;;;;;;3.22;1.00;;;;;;;17.12;51.35;100497.69;1650956;86;20924;-78
2022/05/29 11:29:35;;;;;;;1.82;0.88;;;;;;;17.06;51.20;100497.96;1652683;86;20928;-78
2022/05/29 11:32:44;;;;;;;1.95;0.90;;;;;;;16.93;51.29;100494.65;1593921;89;20960;-78
2022/05/29 11:35:35;;;;;;;3.98;1.45;;;;;;;16.91;51.34;100491.26;1628957;85;21380;-78
2022/05/29 11:38:16;;;;;;;4.47;1.10;;;;;;;16.99;51.36;100497.84;1609886;89;20903;-79
2022/05/29 11:40:51;;;;;;;2.60;1.25;;;;;;;16.94;51.26;100491.97;1652565;86;20953;-78
2022/05/29 11:43:26;;;;;;;1.42;1.00;;;;;;;16.93;51.38;100495.95;1629845;86;20912;-78
2022/05/29 11:52:19;;;;;;;2.60;1.35;;;;;;;17.08;51.35;100490.91;1609496;89;20904;-78
2022/05/29 11:54:51;;;;;;;2.65;1.10;;;;;;;17.10;51.30;100482.54;1652488;85;20925;-78
2022/05/29 11:57:29;;;;;;;2.77;1.32;;;;;;;17.14;51.41;100473.64;1649798;86;20888;-78
2022/05/29 12:00:21;;;;;;;4.67;1.10;;;;;;;17.19;51.36;100477.33;1700948;83;20924;-77
2022/05/29 12:03:04;;;;;;;4.85;1.10;;;;;;;17.23;51.37;100478.03;1575284;89;20948;-77
2022/05/29 12:05:47;;;;;;;3.58;0.93;;;;;;;17.25;51.34;100475.74;1686346;84;21339;-77
2022/05/29 12:08:29;;;;;;;3.47;1.00;;;;;;;17.22;51.41;100475.88;1672308;82;20985;-77
2022/05/29 12:11:33;;;;;;;2.47;0.90;;;;;;;17.30;51.43;100478.14;1696195;82;20913;-77
2022/05/29 12:14:14;;;;;;;3.00;0.98;;;;;;;17.34;51.40;100477.94;1691890;84;20901;-78
2022/05/29 12:16:44;;;;;;;1.00;0.70;;;;;;;17.31;51.25;100473.30;1692506;83;20941;-78
2022/05/29 12:19:18;;;;;;;4.85;1.45;;;;;;;17.31;51.33;100478.53;1703646;83;20960;-78
2022/05/29 12:21:52;;;;;;;4.40;1.27;;;;;;;17.37;51.36;100480.87;1699205;83;20956;-78
2022/05/29 12:24:26;;;;;;;1.35;0.72;;;;;;;17.40;51.25;100475.50;1680182;83;20938;-78
2022/05/29 12:27:03;;;;;;;1.37;0.70;;;;;;;17.45;51.31;100479.59;1687050;83;20898;-78
2022/05/29 12:29:55;;;;;;;1.75;0.80;;;;;;;17.47;51.20;100480.38;1698112;83;20945;-78
2022/05/29 12:32:28;;;;;;;2.67;1.05;;;;;;;17.47;51.10;100479.06;1707553;83;20973;-78
2022/05/29 12:35:20;;;;;;;3.45;1.45;;;;;;;17.46;51.06;100485.67;1695745;83;20938;-78
2022/05/29 12:38:12;;;;;;;2.22;0.88;;;;;;;17.46;51.12;100484.36;1682236;83;21517;-78
2022/05/29 12:40:59;;;;;;;3.30;0.90;;;;;;;17.45;51.08;100485.28;1701483;81;21342;-78